createdAt,value
2023-03-06T06:49:42.988Z,12.98
2023-03-06T06:52:44.737Z,13.63
2023-03-06T06:55:46.595Z,14.07
2023-03-06T06:58:48.341Z,13.52
2023-03-06T07:01:53.472Z,14.15
2023-03-06T07:05:06.938Z,14.40
2023-03-06T07:08:09.662Z,14.70
2023-03-06T07:11:15.202Z,14.80
2023-03-06T07:14:23.170Z,14.30
2023-03-06T07:17:27.189Z,14.45
2023-03-06T07:20:34.230Z,14.95
2023-03-06T07:23:37.950Z,15.55
2023-03-06T07:26:47.997Z,14.43
2023-03-06T07:29:51.189Z,14.27
2023-03-06T07:32:55.675Z,16.25
2023-03-06T07:35:58.484Z,15.25
2023-03-06T07:39:02.686Z,15.32
2023-03-06T07:42:04.588Z,15.23
2023-03-06T07:45:08.673Z,17.33
2023-03-06T07:48:10.640Z,14.45
2023-03-06T07:51:18.543Z,15.45
2023-03-06T07:54:20.303Z,15.48
2023-03-06T07:57:21.985Z,21.77
2023-03-06T08:00:24.491Z,15.65
2023-03-06T08:03:26.324Z,16.83
2023-03-06T08:06:28.508Z,16.45
2023-03-06T08:09:30.563Z,15.77
2023-03-06T08:12:32.857Z,20.55
2023-03-06T08:15:34.707Z,17.52
2023-03-06T08:18:39.616Z,17.52
2023-03-06T08:21:43.591Z,18.73
2023-03-06T08:24:45.344Z,17.23
2023-03-06T08:27:47.448Z,16.52
2023-03-06T08:30:50.537Z,16.00
2023-03-06T08:33:53.612Z,19.05
2023-03-06T08:36:55.399Z,17.05
2023-03-06T08:39:57.143Z,19.30
2023-03-06T08:42:58.922Z,21.20
2023-03-06T08:46:01.454Z,17.95
2023-03-06T08:49:04.172Z,16.17
2023-03-06T08:52:07.302Z,16.65
2023-03-06T08:55:09.556Z,16.63
2023-03-06T08:58:12.985Z,16.52
2023-03-06T09:01:21.111Z,15.30
2023-03-06T09:04:27.286Z,16.80
2023-03-06T09:07:33.341Z,15.98
2023-03-06T09:10:42.154Z,15.52
2023-03-06T09:13:47.249Z,15.60
2023-03-06T09:17:00.468Z,15.65
2023-03-06T09:20:09.243Z,16.85
2023-03-06T09:23:19.537Z,16.35
2023-03-06T09:26:39.712Z,16.75
2023-03-06T09:29:48.062Z,16.83
2023-03-06T09:32:50.377Z,16.42
2023-03-06T09:35:56.064Z,15.60
2023-03-06T09:38:58.070Z,14.85
2023-03-06T09:42:00.662Z,16.45
2023-03-06T09:45:06.931Z,16.65
2023-03-06T09:48:15.966Z,15.43
2023-03-06T09:51:23.339Z,16.27
2023-03-06T09:54:51.630Z,21.95
2023-03-06T09:58:17.838Z,19.58
2023-03-06T10:01:24.859Z,14.95
2023-03-06T10:04:36.467Z,15.38
2023-03-06T10:07:44.499Z,15.15
2023-03-06T10:11:06.092Z,14.13
2023-03-06T10:14:36.479Z,15.32
2023-03-06T10:17:43.661Z,15.13
2023-03-06T10:21:18.631Z,18.83
2023-03-06T10:24:47.591Z,15.73
2023-03-06T10:28:03.890Z,17.20
2023-03-06T10:31:23.877Z,15.45
2023-03-06T10:34:37.616Z,15.85
2023-03-06T10:37:39.472Z,14.80
2023-03-06T10:40:52.328Z,14.98
2023-03-06T10:44:00.815Z,15.38
2023-03-06T10:47:29.615Z,16.90
2023-03-06T10:50:42.029Z,15.00
2023-03-06T10:54:00.613Z,14.70
2023-03-06T10:57:49.675Z,14.10
2023-03-06T11:01:24.216Z,14.88
2023-03-06T11:04:43.819Z,15.40
2023-03-06T11:08:03.456Z,14.15
2023-03-06T11:11:28.216Z,13.07
2023-03-06T11:14:42.105Z,13.95
2023-03-06T11:18:14.301Z,13.30
2023-03-06T11:21:31.838Z,13.15
2023-03-06T11:24:45.600Z,13.00
2023-03-06T11:28:01.835Z,13.35
2023-03-06T11:31:24.740Z,12.13
2023-03-06T11:34:50.575Z,12.53
2023-03-06T11:38:20.472Z,13.27
2023-03-06T11:41:26.172Z,12.90
2023-03-06T11:44:41.566Z,14.43
2023-03-06T11:47:49.512Z,11.85
2023-03-06T11:50:55.705Z,13.32
2023-03-06T11:54:00.416Z,14.02
2023-03-06T11:57:06.826Z,13.30
2023-03-06T12:00:29.386Z,14.07
2023-03-06T12:04:07.304Z,13.07
2023-03-06T12:07:44.442Z,12.98
2023-03-06T12:10:52.237Z,12.70
2023-03-06T12:14:04.124Z,13.65
2023-03-06T12:17:11.068Z,12.90
2023-03-06T12:20:50.423Z,13.40
2023-03-06T12:24:19.115Z,12.27
2023-03-06T12:27:35.987Z,12.15
2023-03-06T12:30:46.717Z,12.50
2023-03-06T12:34:05.750Z,13.00
2023-03-06T12:37:28.590Z,12.00
2023-03-06T12:40:51.515Z,12.25
2023-03-06T12:44:14.324Z,12.80
2023-03-06T12:47:21.712Z,13.90
2023-03-06T12:50:32.240Z,12.18
2023-03-06T12:53:35.770Z,13.20
2023-03-06T12:56:40.400Z,13.43
2023-03-06T12:59:56.468Z,13.35
2023-03-06T13:03:27.302Z,13.13
2023-03-06T13:07:24.752Z,12.27
2023-03-06T13:10:38.484Z,12.18
2023-03-06T13:13:50.701Z,12.75
2023-03-06T13:16:57.944Z,12.57
2023-03-06T13:20:14.969Z,12.73
2023-03-06T13:23:50.011Z,11.85
2023-03-06T13:27:07.697Z,12.02
2023-03-06T13:30:37.949Z,11.15
2023-03-06T13:33:40.761Z,10.50
2023-03-06T13:36:46.123Z,11.35
2023-03-06T13:40:00.014Z,18.35
2023-03-06T13:43:05.333Z,10.68
2023-03-06T13:46:30.922Z,11.55
2023-03-06T13:49:33.940Z,10.55
2023-03-06T13:52:39.711Z,11.38
2023-03-06T13:56:02.397Z,10.68
2023-03-06T13:59:19.178Z,10.73
2023-03-06T14:02:40.196Z,10.63
2023-03-06T14:05:49.986Z,10.85
2023-03-06T14:08:52.013Z,11.45
2023-03-06T14:12:02.418Z,10.43
2023-03-06T14:15:11.650Z,10.23
2023-03-06T14:18:13.245Z,10.05
2023-03-06T14:21:21.469Z,11.13
2023-03-06T14:24:43.346Z,10.13
2023-03-06T14:27:52.573Z,11.00
2023-03-06T14:30:57.075Z,11.13
2023-03-06T14:34:01.366Z,11.25
2023-03-06T14:37:05.671Z,10.33
2023-03-06T14:40:13.801Z,11.25
2023-03-06T14:43:27.796Z,9.55
2023-03-06T14:46:29.512Z,10.80
2023-03-06T14:49:31.189Z,10.63
2023-03-06T14:52:33.493Z,11.43
2023-03-06T14:55:36.146Z,10.57
2023-03-06T14:58:40.862Z,11.60
2023-03-06T15:01:46.460Z,11.77
2023-03-06T15:04:52.036Z,11.68
2023-03-06T15:07:56.977Z,13.40
2023-03-06T15:11:01.712Z,12.57
2023-03-06T15:14:04.960Z,12.93
2023-03-06T15:17:18.506Z,13.32
2023-03-06T15:20:44.140Z,13.05
2023-03-06T15:23:51.656Z,12.90
2023-03-06T15:26:55.144Z,12.57
2023-03-06T15:30:31.135Z,13.90
2023-03-06T15:36:42.180Z,13.40
2023-03-06T15:39:43.850Z,13.35
2023-03-06T15:42:46.073Z,12.65
2023-03-06T15:45:47.790Z,12.07
2023-03-06T15:49:00.283Z,12.73
2023-03-06T15:52:03.405Z,12.60
2023-03-06T15:55:05.470Z,12.50
2023-03-06T15:58:09.988Z,12.45
2023-03-06T16:01:16.572Z,11.60
2023-03-06T16:04:19.914Z,13.15
2023-03-06T16:07:21.692Z,13.55
2023-03-06T16:10:25.850Z,12.75
2023-03-06T16:13:29.256Z,12.82
2023-03-06T16:16:36.271Z,13.32
2023-03-06T16:19:38.344Z,14.02
2023-03-06T16:22:39.990Z,14.50
2023-03-06T16:25:45.218Z,14.50
2023-03-06T16:28:48.012Z,14.40
2023-03-06T16:31:49.972Z,14.70
2023-03-06T16:34:51.646Z,14.18
2023-03-06T16:37:53.653Z,14.20
2023-03-06T16:40:55.310Z,13.85
2023-03-06T16:43:57.145Z,14.50
2023-03-06T16:47:00.560Z,14.57
2023-03-06T16:50:04.170Z,14.27
2023-03-06T16:53:06.735Z,13.90
2023-03-06T16:56:14.270Z,13.60
2023-03-06T16:59:15.956Z,13.60
